Time;durP1;ratioP1;P1;durP2;ratioP2;P2;SDS_P1;SDS_P2;PMS_P1;PMS_P2;Temp;Humidity;BMP_temperature;BMP_pressure;BME280_temperature;BME280_humidity;BME280_pressure;Samples;Min_cycle;Max_cycle;Signal;HPM_P1;HPM_P2
2022/04/11 00:01:48;;;;;;;23.13;10.70;;;;;;;;;;5075986;28;20036;-84
2022/04/11 00:04:34;;;;;;;16.00;9.43;;;;;;;;;;5076297;28;20470;-84
2022/04/11 00:07:19;;;;;;;8.75;6.13;;;;;;;;;;5077267;28;20041;-84
2022/04/11 00:10:04;;;;;;;8.95;4.15;;;;;;;;;;5078182;28;20048;-84
2022/04/11 00:12:50;;;;;;;7.10;3.83;;;;;;;;;;5078119;28;20505;-83
2022/04/11 00:15:38;;;;;;;3.95;2.65;;;;;;;;;;5075557;28;20055;-85
2022/04/11 00:18:24;;;;;;;7.30;3.70;;;;;;;;;;5075774;28;20056;-84
2022/04/11 00:21:10;;;;;;;5.45;4.03;;;;;;;;;;5075905;28;20066;-83
2022/04/11 00:23:56;;;;;;;5.10;2.92;;;;;;;;;;5075180;28;20052;-84
2022/04/11 00:26:41;;;;;;;6.47;3.80;;;;;;;;;;5075131;28;20049;-84
2022/04/11 00:29:27;;;;;;;6.20;4.03;;;;;;;;;;5080955;28;20386;-84
2022/04/11 00:32:12;;;;;;;5.70;3.58;;;;;;;;;;5075525;28;20500;-83
2022/04/11 00:34:57;;;;;;;4.32;3.00;;;;;;;;;;5082211;28;20047;-84
2022/04/11 00:37:45;;;;;;;7.53;3.65;;;;;;;;;;5075118;28;20075;-84
2022/04/11 00:40:30;;;;;;;3.17;2.40;;;;;;;;;;5075347;28;20393;-83
2022/04/11 00:43:30;;;;;;;5.70;3.17;;;;;;;;;;5074925;28;20048;-84
2022/04/11 00:46:15;;;;;;;4.75;2.13;;;;;;;;;;5080689;28;20045;-83
2022/04/11 00:49:01;;;;;;;6.50;3.63;;;;;;;;;;5074589;28;20204;-84
2022/04/11 00:51:46;;;;;;;25.48;18.83;;;;;;;;;;5080715;28;20047;-84
2022/04/11 00:54:32;;;;;;;4.03;2.80;;;;;;;;;;5075064;28;20168;-84
2022/04/11 00:57:19;;;;;;;6.63;4.70;;;;;;;;;;5074648;28;20051;-85
2022/04/11 01:00:09;;;;;;;8.23;4.88;;;;;;;;;;5075262;28;20055;-84
2022/04/11 01:02:55;;;;;;;39.67;22.73;;;;;;;;;;5075092;28;20048;-84
2022/04/11 01:05:42;;;;;;;61.72;27.38;;;;;;;;;;5074218;28;20109;-85
2022/04/11 01:08:28;;;;;;;176.98;77.43;;;;;;;;;;5074399;28;20044;-84
2022/04/11 01:11:13;;;;;;;28.17;15.52;;;;;;;;;;5074112;28;20049;-84
2022/04/11 01:13:57;;;;;;;18.73;10.95;;;;;;;;;;5073865;28;20040;-84
2022/04/11 01:16:50;;;;;;;11.90;6.88;;;;;;;;;;5074685;28;20052;-85
2022/04/11 01:19:36;;;;;;;9.50;6.65;;;;;;;;;;5074212;28;20052;-85
2022/04/11 01:22:21;;;;;;;7.15;4.78;;;;;;;;;;5074185;28;20470;-85
2022/04/11 01:25:07;;;;;;;5.28;3.38;;;;;;;;;;5079644;28;20056;-85
2022/04/11 01:27:53;;;;;;;6.25;4.07;;;;;;;;;;5074035;28;20053;-86
2022/04/11 01:30:38;;;;;;;7.05;4.35;;;;;;;;;;5080121;28;20049;-84
2022/04/11 01:33:28;;;;;;;11.43;6.82;;;;;;;;;;5079432;28;20048;-85
2022/04/11 01:36:18;;;;;;;6.78;3.22;;;;;;;;;;5079972;28;20044;-85
2022/04/11 01:39:04;;;;;;;9.68;3.22;;;;;;;;;;5079890;28;20465;-85
2022/04/11 01:41:49;;;;;;;6.43;3.22;;;;;;;;;;5074016;28;20052;-84
2022/04/11 01:44:35;;;;;;;5.60;3.22;;;;;;;;;;5080804;28;20041;-85
2022/04/11 01:47:20;;;;;;;6.50;4.38;;;;;;;;;;5104832;28;20042;-84
2022/04/11 01:50:09;;;;;;;7.07;3.60;;;;;;;;;;5101300;28;20055;-84
2022/04/11 01:53:02;;;;;;;9.95;5.03;;;;;;;;;;5082403;28;20047;-85
2022/04/11 01:55:48;;;;;;;13.07;5.40;;;;;;;;;;5079432;28;20052;-83
2022/04/11 01:58:34;;;;;;;9.98;4.50;;;;;;;;;;5079556;28;20403;-85
2022/04/11 02:01:19;;;;;;;12.25;4.63;;;;;;;;;;5078907;28;20048;-84
2022/04/11 02:04:05;;;;;;;6.45;3.92;;;;;;;;;;5079694;28;20446;-84
2022/04/11 02:06:50;;;;;;;20.08;4.95;;;;;;;;;;5079806;28;20036;-84
2022/04/11 02:09:35;;;;;;;17.40;5.88;;;;;;;;;;5072982;28;20037;-85
2022/04/11 02:12:20;;;;;;;17.98;6.65;;;;;;;;;;5074239;28;20405;-83
2022/04/11 02:15:09;;;;;;;13.60;6.45;;;;;;;;;;5079354;28;20041;-84
2022/04/11 02:17:55;;;;;;;17.55;7.22;;;;;;;;;;5079490;28;20048;-84
2022/04/11 02:20:42;;;;;;;15.90;6.70;;;;;;;;;;5079241;28;20049;-84
2022/04/11 02:23:29;;;;;;;13.35;6.22;;;;;;;;;;5073069;28;20036;-83
2022/04/11 02:26:14;;;;;;;14.40;6.95;;;;;;;;;;5073217;28;20060;-84
2022/04/11 02:29:00;;;;;;;13.93;6.75;;;;;;;;;;5078943;28;20044;-83
2022/04/11 02:31:46;;;;;;;17.25;7.38;;;;;;;;;;5078768;28;20140;-84
2022/04/11 02:34:31;;;;;;;11.25;5.57;;;;;;;;;;5073773;28;20049;-83
2022/04/11 02:37:17;;;;;;;12.95;6.13;;;;;;;;;;5078556;28;20044;-84
2022/04/11 02:40:04;;;;;;;13.65;5.95;;;;;;;;;;5079762;28;20048;-83
2022/04/11 02:42:53;;;;;;;7.30;4.80;;;;;;;;;;5078984;28;20040;-84
2022/04/11 02:45:40;;;;;;;8.25;5.10;;;;;;;;;;5078713;28;20052;-84
2022/04/11 02:48:27;;;;;;;7.72;4.43;;;;;;;;;;5079038;28;20044;-83
2022/04/11 02:51:22;;;;;;;8.32;4.82;;;;;;;;;;5078277;28;20068;-84
2022/04/11 02:54:16;;;;;;;7.65;4.10;;;;;;;;;;5079071;28;20486;-84
2022/04/11 02:57:04;;;;;;;7.28;4.53;;;;;;;;;;5079078;28;20041;-84
2022/04/11 02:59:51;;;;;;;7.47;3.97;;;;;;;;;;5070799;28;20045;-84
2022/04/11 03:02:36;;;;;;;8.25;4.53;;;;;;;;;;5078616;28;20036;-84
2022/04/11 03:05:22;;;;;;;8.00;5.10;;;;;;;;;;5072771;28;20052;-84
2022/04/11 03:08:10;;;;;;;9.25;5.10;;;;;;;;;;5078597;28;20040;-83
2022/04/11 03:10:57;;;;;;;6.97;4.03;;;;;;;;;;5079195;28;20044;-83
2022/04/11 03:13:44;;;;;;;9.10;4.60;;;;;;;;;;5080948;28;20040;-84
2022/04/11 03:16:31;;;;;;;6.75;3.90;;;;;;;;;;5076906;28;20398;-83
2022/04/11 03:19:17;;;;;;;6.50;3.92;;;;;;;;;;5082429;28;20478;-84
2022/04/11 03:22:02;;;;;;;6.18;2.78;;;;;;;;;;5082455;28;20041;-83
2022/04/11 03:24:47;;;;;;;5.90;3.35;;;;;;;;;;5082848;28;20041;-82
2022/04/11 03:27:33;;;;;;;4.95;3.28;;;;;;;;;;5076675;28;20410;-84
2022/04/11 03:30:20;;;;;;;8.32;4.65;;;;;;;;;;5077218;28;20033;-84
2022/04/11 03:33:06;;;;;;;4.95;3.75;;;;;;;;;;5076414;28;20040;-84
2022/04/11 03:35:54;;;;;;;18.42;10.25;;;;;;;;;;5082311;28;20044;-84
2022/04/11 03:38:40;;;;;;;42.55;19.60;;;;;;;;;;5068480;28;20044;-84
2022/04/11 03:41:30;;;;;;;35.35;17.25;;;;;;;;;;5081597;28;20486;-84
2022/04/11 03:44:27;;;;;;;7.03;5.22;;;;;;;;;;5082228;28;20048;-83
2022/04/11 03:47:18;;;;;;;7.15;4.50;;;;;;;;;;5082155;28;20394;-83
2022/04/11 03:50:04;;;;;;;10.77;3.92;;;;;;;;;;5082082;28;20501;-84
2022/04/11 03:52:53;;;;;;;5.95;3.55;;;;;;;;;;5087116;28;20406;-84
2022/04/11 03:55:39;;;;;;;6.18;3.38;;;;;;;;;;5082458;28;20049;-84
2022/04/11 03:58:28;;;;;;;9.20;7.10;;;;;;;;;;5089733;28;20044;-84
2022/04/11 04:01:13;;;;;;;9.63;6.13;;;;;;;;;;5105515;28;20052;-83
2022/04/11 04:03:59;;;;;;;16.08;8.05;;;;;;;;;;5099914;28;20032;-83
2022/04/11 04:06:44;;;;;;;11.88;5.85;;;;;;;;;;5107201;28;20028;-83
2022/04/11 04:09:32;;;;;;;8.80;5.05;;;;;;;;;;5096299;28;20052;-84
2022/04/11 04:12:19;;;;;;;15.15;5.53;;;;;;;;;;5082499;28;20045;-84
2022/04/11 04:15:26;;;;;;;12.40;5.45;;;;;;;;;;5081634;28;20036;-83
2022/04/11 04:18:13;;;;;;;10.70;6.50;;;;;;;;;;5081447;28;20036;-83
2022/04/11 04:20:59;;;;;;;13.15;6.03;;;;;;;;;;5081887;28;20040;-84
2022/04/11 04:23:45;;;;;;;15.45;6.45;;;;;;;;;;5080920;28;20041;-84
2022/04/11 04:26:34;;;;;;;20.63;8.98;;;;;;;;;;5079234;28;20040;-84
2022/04/11 04:29:21;;;;;;;19.15;9.13;;;;;;;;;;5081195;28;20036;-85
2022/04/11 04:32:11;;;;;;;13.75;7.43;;;;;;;;;;5075026;28;20044;-84
2022/04/11 04:34:57;;;;;;;10.85;6.50;;;;;;;;;;5081209;28;20037;-84
2022/04/11 04:37:45;;;;;;;13.43;7.85;;;;;;;;;;5080693;28;20040;-83
2022/04/11 04:40:30;;;;;;;21.30;9.75;;;;;;;;;;5081150;28;20052;-84
2022/04/11 04:43:17;;;;;;;21.35;9.27;;;;;;;;;;5081718;28;20048;-84
2022/04/11 04:46:02;;;;;;;21.30;9.35;;;;;;;;;;5074721;28;20040;-85
2022/04/11 04:49:03;;;;;;;17.95;9.65;;;;;;;;;;5080954;28;20057;-85
2022/04/11 04:51:49;;;;;;;12.48;6.10;;;;;;;;;;5079788;28;20052;-84
2022/04/11 04:54:35;;;;;;;15.77;7.80;;;;;;;;;;5080995;28;20036;-84
2022/04/11 04:57:20;;;;;;;13.10;7.05;;;;;;;;;;5074598;28;20044;-83
2022/04/11 05:00:07;;;;;;;20.23;9.82;;;;;;;;;;5080382;28;20044;-83
2022/04/11 05:02:59;;;;;;;19.50;9.90;;;;;;;;;;5080535;28;20040;-83
2022/04/11 05:05:45;;;;;;;22.65;14.45;;;;;;;;;;5080773;28;20477;-85
2022/04/11 05:08:32;;;;;;;14.90;6.90;;;;;;;;;;5079580;28;20045;-84
2022/04/11 05:11:20;;;;;;;14.23;5.72;;;;;;;;;;5065986;28;20474;-84
2022/04/11 05:14:07;;;;;;;12.50;6.30;;;;;;;;;;5080130;28;20036;-83
2022/04/11 05:16:54;;;;;;;10.63;5.07;;;;;;;;;;5080240;28;20048;-85
2022/04/11 05:19:42;;;;;;;11.98;5.43;;;;;;;;;;5080449;28;20056;-85
2022/04/11 05:22:28;;;;;;;16.60;4.18;;;;;;;;;;5079804;28;20049;-85
2022/04/11 05:25:14;;;;;;;10.43;6.43;;;;;;;;;;5080212;28;20469;-85
2022/04/11 05:27:59;;;;;;;15.80;7.18;;;;;;;;;;5074044;28;20053;-84
2022/04/11 05:30:45;;;;;;;10.60;6.10;;;;;;;;;;5079997;28;20044;-85
2022/04/11 05:33:30;;;;;;;12.15;5.05;;;;;;;;;;5074347;28;20052;-83
2022/04/11 05:36:20;;;;;;;10.23;4.00;;;;;;;;;;5079008;28;20044;-86
2022/04/11 05:39:06;;;;;;;11.15;4.45;;;;;;;;;;5080017;28;20494;-82
2022/04/11 05:41:54;;;;;;;11.70;5.30;;;;;;;;;;5079898;28;20040;-85
2022/04/11 05:44:40;;;;;;;8.70;5.13;;;;;;;;;;5079779;28;20044;-84
2022/04/11 05:47:25;;;;;;;6.38;3.83;;;;;;;;;;5079941;28;20044;-85
2022/04/11 05:50:15;;;;;;;14.18;4.05;;;;;;;;;;5079420;28;20040;-86
2022/04/11 05:53:03;;;;;;;10.00;4.50;;;;;;;;;;5079781;28;20049;-85
2022/04/11 05:55:48;;;;;;;8.88;4.57;;;;;;;;;;5079964;28;20044;-84
2022/04/11 05:58:34;;;;;;;7.28;3.60;;;;;;;;;;5078928;28;20045;-83
2022/04/11 06:01:21;;;;;;;5.07;2.80;;;;;;;;;;5079773;28;20044;-83
2022/04/11 06:04:08;;;;;;;7.85;4.03;;;;;;;;;;5073758;28;20044;-87
2022/04/11 06:06:53;;;;;;;6.50;3.60;;;;;;;;;;5079419;28;20044;-83
2022/04/11 06:09:39;;;;;;;7.72;4.75;;;;;;;;;;5079585;28;20048;-83
2022/04/11 06:12:25;;;;;;;7.30;3.92;;;;;;;;;;5100807;28;20034;-85
2022/04/11 06:15:17;;;;;;;10.80;3.20;;;;;;;;;;5100312;28;20047;-83
2022/04/11 06:18:03;;;;;;;10.32;4.93;;;;;;;;;;5087186;28;20056;-83
2022/04/11 06:20:49;;;;;;;13.10;5.72;;;;;;;;;;5079123;28;20056;-84
2022/04/11 06:23:35;;;;;;;7.55;3.00;;;;;;;;;;5079453;28;20040;-85
2022/04/11 06:26:21;;;;;;;4.85;2.42;;;;;;;;;;5077384;28;20045;-84
2022/04/11 06:29:06;;;;;;;4.63;2.38;;;;;;;;;;5079369;28;20494;-84
2022/04/11 06:31:53;;;;;;;2.90;2.03;;;;;;;;;;5079897;28;20149;-83
2022/04/11 06:34:44;;;;;;;4.55;2.72;;;;;;;;;;5078891;28;20036;-84
2022/04/11 06:37:29;;;;;;;4.40;2.38;;;;;;;;;;5079134;28;20390;-85
2022/04/11 06:40:17;;;;;;;4.07;2.13;;;;;;;;;;5078764;28;20049;-82
2022/04/11 06:43:03;;;;;;;6.53;2.33;;;;;;;;;;5079052;28;20097;-82
2022/04/11 06:46:08;;;;;;;3.63;2.10;;;;;;;;;;5073590;28;20037;-83
2022/04/11 06:48:53;;;;;;;2.15;1.70;;;;;;;;;;5081772;28;20044;-83
2022/04/11 06:51:39;;;;;;;1.98;1.52;;;;;;;;;;5083209;28;20040;-84
2022/04/11 06:54:24;;;;;;;5.22;3.10;;;;;;;;;;5076803;28;20493;-84
2022/04/11 06:57:09;;;;;;;5.88;3.00;;;;;;;;;;5077337;28;20040;-82
2022/04/11 06:59:54;;;;;;;3.45;2.25;;;;;;;;;;5077586;28;20045;-84
2022/04/11 07:02:40;;;;;;;4.40;2.60;;;;;;;;;;5076657;28;20044;-82
2022/04/11 07:05:26;;;;;;;9.43;3.88;;;;;;;;;;5077030;28;20044;-84
2022/04/11 07:08:11;;;;;;;3.70;2.35;;;;;;;;;;5076431;28;20040;-84
2022/04/11 07:10:59;;;;;;;5.85;3.42;;;;;;;;;;5076708;28;20044;-83
2022/04/11 07:13:45;;;;;;;3.83;2.00;;;;;;;;;;5076786;28;20048;-86
2022/04/11 07:16:30;;;;;;;3.35;1.65;;;;;;;;;;5076232;28;20048;-83
2022/04/11 07:19:15;;;;;;;3.78;2.08;;;;;;;;;;5076938;28;20473;-84
2022/04/11 07:22:01;;;;;;;6.03;2.40;;;;;;;;;;5076800;28;20386;-84
2022/04/11 07:24:47;;;;;;;5.47;2.35;;;;;;;;;;5076738;28;20053;-85
2022/04/11 07:27:32;;;;;;;4.75;2.22;;;;;;;;;;5076235;28;20040;-84
2022/04/11 07:30:18;;;;;;;4.07;2.20;;;;;;;;;;5075990;28;20048;-84
2022/04/11 07:33:04;;;;;;;3.70;2.17;;;;;;;;;;5076735;28;20052;-85
2022/04/11 07:35:49;;;;;;;3.45;1.98;;;;;;;;;;5076606;28;20041;-85
2022/04/11 07:38:35;;;;;;;3.22;1.85;;;;;;;;;;5076008;28;20045;-84
2022/04/11 07:41:21;;;;;;;4.22;2.22;;;;;;;;;;5076542;28;20037;-85
2022/04/11 07:44:06;;;;;;;4.50;2.40;;;;;;;;;;5081170;28;20033;-83
2022/04/11 07:46:51;;;;;;;2.25;1.60;;;;;;;;;;5075923;28;20040;-84
2022/04/11 07:49:37;;;;;;;2.53;2.05;;;;;;;;;;5075909;28;20052;-85
2022/04/11 07:52:23;;;;;;;3.67;2.22;;;;;;;;;;5075562;28;20160;-85
2022/04/11 07:55:11;;;;;;;2.08;1.73;;;;;;;;;;5093047;28;20028;-83
2022/04/11 07:57:57;;;;;;;9.35;2.33;;;;;;;;;;5083388;28;20048;-85
2022/04/11 08:00:42;;;;;;;3.55;2.05;;;;;;;;;;5076058;28;20053;-84
2022/04/11 08:03:28;;;;;;;3.38;2.30;;;;;;;;;;5076328;28;20044;-82
2022/04/11 08:06:14;;;;;;;4.53;2.22;;;;;;;;;;5075266;28;20056;-83
2022/04/11 08:08:59;;;;;;;11.75;4.85;;;;;;;;;;5082332;28;20478;-80
2022/04/11 08:11:44;;;;;;;8.05;3.80;;;;;;;;;;5075861;28;20052;-78
2022/04/11 08:14:31;;;;;;;2.20;1.85;;;;;;;;;;5083094;28;20041;-77
2022/04/11 08:17:16;;;;;;;2.72;1.70;;;;;;;;;;5077309;28;20120;-77
2022/04/11 08:20:03;;;;;;;12.25;5.15;;;;;;;;;;5075825;28;20049;-76
2022/04/11 08:22:48;;;;;;;4.10;2.78;;;;;;;;;;5089406;28;20033;-76
2022/04/11 08:25:34;;;;;;;6.68;3.55;;;;;;;;;;5086604;28;20041;-76
2022/04/11 08:28:20;;;;;;;4.55;1.90;;;;;;;;;;5075838;28;20041;-77
2022/04/11 08:31:05;;;;;;;6.68;3.47;;;;;;;;;;5081645;28;20045;-77
2022/04/11 08:33:50;;;;;;;4.15;2.30;;;;;;;;;;5074729;28;20052;-77
2022/04/11 08:36:36;;;;;;;2.60;1.83;;;;;;;;;;5075603;28;20438;-74
2022/04/11 08:39:21;;;;;;;4.75;2.05;;;;;;;;;;5074916;28;20044;-77
2022/04/11 08:42:07;;;;;;;2.55;1.60;;;;;;;;;;5074292;28;20041;-76
2022/04/11 08:44:56;;;;;;;4.38;2.20;;;;;;;;;;5075068;28;20048;-77
2022/04/11 08:47:42;;;;;;;13.15;3.40;;;;;;;;;;5081160;28;20044;-77
2022/04/11 08:50:28;;;;;;;2.25;1.65;;;;;;;;;;5074263;28;20470;-74
2022/04/11 08:53:15;;;;;;;5.53;2.53;;;;;;;;;;5055853;28;20053;-76
2022/04/11 08:56:00;;;;;;;2.08;1.65;;;;;;;;;;5054179;28;20044;-75
2022/04/11 08:58:46;;;;;;;3.03;1.85;;;;;;;;;;5054317;28;20049;-77
2022/04/11 09:01:33;;;;;;;2.70;1.92;;;;;;;;;;5060738;28;20044;-74
2022/04/11 09:04:18;;;;;;;1.95;1.63;;;;;;;;;;5053911;28;20128;-76
2022/04/11 09:07:02;;;;;;;2.72;1.63;;;;;;;;;;5054304;28;20045;-76
2022/04/11 09:09:48;;;;;;;6.15;2.95;;;;;;;;;;5053590;28;20049;-76
2022/04/11 09:12:46;;;;;;;11.13;3.72;;;;;;;;;;5059006;28;20061;-76
2022/04/11 09:15:40;;;;;;;3.08;1.75;;;;;;;;;;5054046;28;20041;-79
2022/04/11 09:18:45;;;;;;;2.72;1.65;;;;;;;;;;5053445;28;20049;-76
2022/04/11 09:21:43;;;;;;;4.67;2.13;;;;;;;;;;5054203;28;20394;-77
2022/04/11 09:24:30;;;;;;;1.48;1.23;;;;;;;;;;5054731;28;20041;-76
2022/04/11 09:27:24;;;;;;;4.28;2.10;;;;;;;;;;5053105;28;20045;-76
2022/04/11 09:30:24;;;;;;;3.58;1.80;;;;;;;;;;5054090;28;20041;-76
2022/04/11 09:33:11;;;;;;;6.30;3.28;;;;;;;;;;5053988;28;20057;-76
2022/04/11 09:35:56;;;;;;;2.80;1.83;;;;;;;;;;5052835;28;20045;-77
2022/04/11 09:38:42;;;;;;;5.32;1.70;;;;;;;;;;5053001;28;20482;-77
2022/04/11 09:41:34;;;;;;;5.10;2.95;;;;;;;;;;5053435;28;20053;-77
2022/04/11 09:44:33;;;;;;;5.97;3.20;;;;;;;;;;5054224;28;20037;-75
2022/04/11 09:47:18;;;;;;;4.85;2.15;;;;;;;;;;5060671;28;20049;-77
2022/04/11 09:50:06;;;;;;;4.25;2.20;;;;;;;;;;5060478;28;20409;-77
2022/04/11 09:52:52;;;;;;;6.95;2.88;;;;;;;;;;5052989;28;20045;-76
2022/04/11 09:55:39;;;;;;;2.88;1.98;;;;;;;;;;5053513;28;20486;-76
2022/04/11 09:58:25;;;;;;;7.43;2.58;;;;;;;;;;5053542;28;20045;-77
2022/04/11 10:01:11;;;;;;;3.58;2.33;;;;;;;;;;5053999;28;20048;-75
2022/04/11 10:03:56;;;;;;;3.33;2.00;;;;;;;;;;5059136;28;20045;-77
2022/04/11 10:06:40;;;;;;;1.17;1.08;;;;;;;;;;5053470;28;20037;-77
2022/04/11 10:09:26;;;;;;;2.08;1.42;;;;;;;;;;5052933;28;20045;-77
2022/04/11 10:12:12;;;;;;;3.70;1.48;;;;;;;;;;5053275;28;20044;-77
2022/04/11 10:14:57;;;;;;;4.72;2.60;;;;;;;;;;5053541;28;20044;-77
2022/04/11 10:17:50;;;;;;;3.13;2.00;;;;;;;;;;5053185;28;20056;-76
2022/04/11 10:20:42;;;;;;;3.15;2.45;;;;;;;;;;5053665;28;20482;-76
2022/04/11 10:23:56;;;;;;;8.15;3.47;;;;;;;;;;5052511;28;20490;-77
2022/04/11 10:26:53;;;;;;;3.55;1.83;;;;;;;;;;5053303;28;20053;-77
2022/04/11 10:29:38;;;;;;;11.00;3.28;;;;;;;;;;5053045;28;20048;-76
2022/04/11 10:32:29;;;;;;;3.70;2.13;;;;;;;;;;5053421;28;20502;-77
2022/04/11 10:35:32;;;;;;;2.83;1.38;;;;;;;;;;5062591;28;20052;-79
2022/04/11 10:38:20;;;;;;;3.45;2.50;;;;;;;;;;5064696;28;20052;-77
2022/04/11 10:41:05;;;;;;;2.33;1.65;;;;;;;;;;5055241;28;20041;-79
2022/04/11 10:44:29;;;;;;;4.38;1.70;;;;;;;;;;5054112;28;20045;-77
2022/04/11 10:47:15;;;;;;;1.88;1.35;;;;;;;;;;5053823;28;20049;-76
2022/04/11 10:50:04;;;;;;;5.53;1.95;;;;;;;;;;5052505;28;20402;-75
2022/04/11 10:53:09;;;;;;;2.72;1.70;;;;;;;;;;5052952;28;20049;-76
2022/04/11 10:56:05;;;;;;;3.35;1.80;;;;;;;;;;5053873;28;20045;-76
2022/04/11 10:58:51;;;;;;;1.77;1.42;;;;;;;;;;5052968;28;20045;-76
2022/04/11 11:01:46;;;;;;;1.38;1.23;;;;;;;;;;5053213;28;20475;-77
2022/04/11 11:04:41;;;;;;;2.85;1.48;;;;;;;;;;5053062;28;20490;-75
2022/04/11 11:07:30;;;;;;;2.72;1.65;;;;;;;;;;5052671;28;20490;-79
2022/04/11 11:10:37;;;;;;;4.75;2.13;;;;;;;;;;5053064;28;20049;-76
2022/04/11 11:13:37;;;;;;;5.60;3.00;;;;;;;;;;5059491;28;20041;-77
2022/04/11 11:16:25;;;;;;;5.00;2.25;;;;;;;;;;5058960;28;20053;-76
2022/04/11 11:19:12;;;;;;;6.50;3.90;;;;;;;;;;5053175;28;20483;-80
2022/04/11 11:22:00;;;;;;;2.63;1.45;;;;;;;;;;5052512;28;20045;-76
2022/04/11 11:25:17;;;;;;;3.15;1.80;;;;;;;;;;5059785;28;20387;-76
2022/04/11 11:28:05;;;;;;;2.47;1.45;;;;;;;;;;5051988;28;20045;-77
2022/04/11 11:30:50;;;;;;;3.50;1.50;;;;;;;;;;5059598;28;20044;-77
2022/04/11 11:33:36;;;;;;;3.20;1.67;;;;;;;;;;5053913;28;20044;-78
2022/04/11 11:36:29;;;;;;;2.75;1.73;;;;;;;;;;5056199;28;20482;-77
2022/04/11 11:39:17;;;;;;;1.73;1.33;;;;;;;;;;5056353;28;20049;-77
2022/04/11 11:42:05;;;;;;;2.03;1.40;;;;;;;;;;5062577;28;20037;-77
2022/04/11 11:44:50;;;;;;;9.52;3.92;;;;;;;;;;5056431;28;20045;-76
2022/04/11 11:47:35;;;;;;;6.57;3.35;;;;;;;;;;5056694;28;20045;-78
2022/04/11 11:50:21;;;;;;;6.78;4.00;;;;;;;;;;5055527;28;20363;-77
2022/04/11 11:53:09;;;;;;;4.97;2.35;;;;;;;;;;5055999;28;20044;-77
2022/04/11 11:55:56;;;;;;;4.72;2.00;;;;;;;;;;5055769;28;20045;-79
2022/04/11 11:58:42;;;;;;;2.70;1.38;;;;;;;;;;5055969;28;20052;-77
2022/04/11 12:01:28;;;;;;;4.13;1.50;;;;;;;;;;5062730;28;20036;-77
2022/04/11 12:04:20;;;;;;;2.05;1.30;;;;;;;;;;5055504;28;20048;-76
2022/04/11 12:07:06;;;;;;;2.83;1.80;;;;;;;;;;5062542;28;20053;-77
2022/04/11 12:09:52;;;;;;;2.22;1.60;;;;;;;;;;5055333;28;20045;-76
2022/04/11 12:12:38;;;;;;;2.10;1.00;;;;;;;;;;5055683;28;20490;-77
2022/04/11 12:15:23;;;;;;;5.05;1.70;;;;;;;;;;5062416;28;20040;-76
2022/04/11 12:18:09;;;;;;;3.15;1.88;;;;;;;;;;5055249;28;20057;-76
2022/04/11 12:20:54;;;;;;;2.47;1.40;;;;;;;;;;5062248;28;20052;-77
2022/04/11 12:23:49;;;;;;;3.65;1.50;;;;;;;;;;5055200;28;20052;-75
2022/04/11 12:26:36;;;;;;;2.03;1.50;;;;;;;;;;5059733;28;20486;-77
2022/04/11 12:29:23;;;;;;;2.03;1.45;;;;;;;;;;5062235;28;20394;-75
2022/04/11 12:32:14;;;;;;;2.50;1.55;;;;;;;;;;5055104;28;20045;-76
2022/04/11 12:35:17;;;;;;;3.53;2.08;;;;;;;;;;5062163;28;20041;-77
2022/04/11 12:38:07;;;;;;;3.38;1.20;;;;;;;;;;5054763;28;20041;-77
2022/04/11 12:40:53;;;;;;;1.30;1.08;;;;;;;;;;5054968;28;20045;-76
2022/04/11 12:43:59;;;;;;;1.55;1.10;;;;;;;;;;5055511;28;20036;-79
2022/04/11 12:47:03;;;;;;;4.97;2.35;;;;;;;;;;5054740;28;20434;-79
2022/04/11 12:49:50;;;;;;;4.53;1.60;;;;;;;;;;5061921;28;20053;-78
2022/04/11 12:52:38;;;;;;;3.15;1.75;;;;;;;;;;5076430;28;20049;-76
2022/04/11 12:55:29;;;;;;;3.33;2.88;;;;;;;;;;5058565;28;20041;-78
2022/04/11 12:58:21;;;;;;;3.95;1.77;;;;;;;;;;5054749;28;20053;-78
2022/04/11 13:01:06;;;;;;;3.25;1.80;;;;;;;;;;5054353;28;20044;-78
2022/04/11 13:03:52;;;;;;;2.28;1.38;;;;;;;;;;5054744;28;20045;-77
2022/04/11 13:06:38;;;;;;;2.40;1.70;;;;;;;;;;5054532;28;20045;-77
2022/04/11 13:09:23;;;;;;;6.50;2.70;;;;;;;;;;5054186;28;20048;-79
2022/04/11 13:12:10;;;;;;;2.15;1.45;;;;;;;;;;5054552;28;20037;-76
2022/04/11 13:14:55;;;;;;;1.98;1.40;;;;;;;;;;5053901;28;20044;-78
2022/04/11 13:20:47;;;;;;;3.45;2.15;;;;;;;;;;5053640;28;20052;-77
2022/04/11 13:23:33;;;;;;;5.10;3.17;;;;;;;;;;5053977;28;20041;-77
2022/04/11 13:26:19;;;;;;;5.07;2.55;;;;;;;;;;5072953;28;20045;-78
2022/04/11 13:29:04;;;;;;;6.72;2.72;;;;;;;;;;5071032;28;20041;-77
2022/04/11 13:31:49;;;;;;;3.10;2.08;;;;;;;;;;5053571;28;20037;-77
2022/04/11 13:34:36;;;;;;;6.50;2.88;;;;;;;;;;5059840;28;20048;-78
2022/04/11 13:37:21;;;;;;;3.60;2.13;;;;;;;;;;5052969;28;20053;-76
2022/04/11 13:40:07;;;;;;;2.65;1.83;;;;;;;;;;5053213;28;20041;-77
2022/04/11 13:42:54;;;;;;;8.40;4.70;;;;;;;;;;5060584;28;20049;-77
2022/04/11 13:45:43;;;;;;;4.75;2.92;;;;;;;;;;5053933;28;20490;-77
2022/04/11 13:48:28;;;;;;;11.63;5.22;;;;;;;;;;5053384;28;20041;-77
2022/04/11 13:51:13;;;;;;;6.53;3.30;;;;;;;;;;5060717;28;20048;-77
2022/04/11 13:53:59;;;;;;;6.10;3.65;;;;;;;;;;5061169;28;20045;-76
2022/04/11 13:56:45;;;;;;;3.90;2.10;;;;;;;;;;5060208;28;20052;-77
2022/04/11 13:59:30;;;;;;;2.97;1.52;;;;;;;;;;5060339;28;20053;-76
2022/04/11 14:02:16;;;;;;;5.50;3.42;;;;;;;;;;5053088;28;20482;-76
2022/04/11 14:05:02;;;;;;;6.32;2.50;;;;;;;;;;5053351;28;20045;-76
2022/04/11 14:07:49;;;;;;;2.42;1.63;;;;;;;;;;5059947;28;20041;-76
2022/04/11 14:10:34;;;;;;;7.85;3.28;;;;;;;;;;5053644;28;20045;-77
2022/04/11 14:13:21;;;;;;;6.15;3.15;;;;;;;;;;5061601;28;20049;-78
2022/04/11 14:16:07;;;;;;;4.00;2.28;;;;;;;;;;5059458;28;20041;-76
2022/04/11 14:18:53;;;;;;;6.97;4.15;;;;;;;;;;5063215;28;20045;-77
2022/04/11 14:21:38;;;;;;;7.85;2.60;;;;;;;;;;5059897;28;20041;-77
2022/04/11 14:24:24;;;;;;;7.85;2.70;;;;;;;;;;5059827;28;20053;-77
2022/04/11 14:27:09;;;;;;;4.15;2.45;;;;;;;;;;5053397;28;20041;-76
2022/04/11 14:29:55;;;;;;;3.08;2.08;;;;;;;;;;5058716;28;20060;-77
2022/04/11 14:32:40;;;;;;;4.15;2.10;;;;;;;;;;5053235;28;20049;-77
2022/04/11 14:35:26;;;;;;;5.05;3.08;;;;;;;;;;5053924;28;20053;-77
2022/04/11 14:38:12;;;;;;;2.35;1.30;;;;;;;;;;5053321;28;20048;-76
2022/04/11 14:40:59;;;;;;;6.88;3.25;;;;;;;;;;5053482;28;20040;-75
2022/04/11 14:43:44;;;;;;;4.38;2.80;;;;;;;;;;5060097;28;20033;-77
2022/04/11 14:46:30;;;;;;;3.13;2.45;;;;;;;;;;5053892;28;20045;-76
2022/04/11 14:49:15;;;;;;;5.05;2.75;;;;;;;;;;5060077;28;20044;-76
2022/04/11 14:52:00;;;;;;;3.08;2.13;;;;;;;;;;5052648;28;20071;-76
2022/04/11 14:54:46;;;;;;;5.15;2.83;;;;;;;;;;5059783;28;20041;-76
2022/04/11 14:57:32;;;;;;;7.93;2.85;;;;;;;;;;5060019;28;20048;-76
2022/04/11 15:00:17;;;;;;;5.05;2.58;;;;;;;;;;5052973;28;20049;-78
2022/04/11 15:03:03;;;;;;;3.40;1.85;;;;;;;;;;5053622;28;20045;-76
2022/04/11 15:05:48;;;;;;;5.68;2.33;;;;;;;;;;5057726;28;20045;-76
2022/04/11 15:08:34;;;;;;;18.35;5.60;;;;;;;;;;5061137;28;20041;-76
2022/04/11 15:11:24;;;;;;;6.07;2.90;;;;;;;;;;5057369;28;20041;-77
2022/04/11 15:14:09;;;;;;;3.55;2.45;;;;;;;;;;5056499;28;20053;-76
2022/04/11 15:16:55;;;;;;;3.30;2.00;;;;;;;;;;5061643;28;20052;-77
2022/04/11 15:19:40;;;;;;;9.68;3.10;;;;;;;;;;5054337;28;20140;-74
2022/04/11 15:22:29;;;;;;;5.65;3.65;;;;;;;;;;5056061;28;20048;-75
2022/04/11 15:25:13;;;;;;;6.53;2.53;;;;;;;;;;5056446;28;20049;-77
2022/04/11 15:27:58;;;;;;;8.00;3.92;;;;;;;;;;5055231;28;20041;-76
2022/04/11 15:30:44;;;;;;;6.30;3.47;;;;;;;;;;5056416;28;20045;-75
2022/04/11 15:33:31;;;;;;;24.70;2.90;;;;;;;;;;5061802;28;20044;-76
2022/04/11 15:36:16;;;;;;;4.13;2.17;;;;;;;;;;5063414;28;20045;-76
2022/04/11 15:39:02;;;;;;;4.40;2.33;;;;;;;;;;5063335;28;20048;-76
2022/04/11 15:41:49;;;;;;;5.18;2.42;;;;;;;;;;5062547;28;20053;-75
2022/04/11 15:44:36;;;;;;;4.50;2.92;;;;;;;;;;5062922;28;20045;-76
2022/04/11 15:47:22;;;;;;;6.88;2.53;;;;;;;;;;5056005;28;20037;-75
2022/04/11 15:50:08;;;;;;;8.95;4.35;;;;;;;;;;5054789;28;20033;-76
2022/04/11 15:52:54;;;;;;;5.20;2.78;;;;;;;;;;5056244;28;20067;-76
2022/04/11 15:55:39;;;;;;;10.68;4.57;;;;;;;;;;5055403;28;20041;-76
2022/04/11 15:58:24;;;;;;;3.05;2.00;;;;;;;;;;5055447;28;20057;-77
2022/04/11 16:01:09;;;;;;;14.43;4.43;;;;;;;;;;5062546;28;20049;-77
2022/04/11 16:03:56;;;;;;;20.20;9.77;;;;;;;;;;5055718;28;20411;-77
2022/04/11 16:06:41;;;;;;;16.42;5.40;;;;;;;;;;5055988;28;20041;-77
2022/04/11 16:09:27;;;;;;;10.07;4.18;;;;;;;;;;5055161;28;20045;-76
2022/04/11 16:12:12;;;;;;;11.90;6.25;;;;;;;;;;5055999;28;20041;-77
2022/04/11 16:14:57;;;;;;;5.35;3.15;;;;;;;;;;5055354;28;20037;-76
2022/04/11 16:17:43;;;;;;;13.23;5.32;;;;;;;;;;5061318;28;20049;-76
2022/04/11 16:20:28;;;;;;;16.13;5.75;;;;;;;;;;5055011;28;20040;-77
2022/04/11 16:23:14;;;;;;;8.93;5.35;;;;;;;;;;5055082;28;20406;-77
2022/04/11 16:26:01;;;;;;;11.13;7.22;;;;;;;;;;5055291;28;20045;-78
2022/04/11 16:28:47;;;;;;;13.60;7.40;;;;;;;;;;5062080;28;20045;-77
2022/04/11 16:31:32;;;;;;;24.77;11.23;;;;;;;;;;5061452;28;20501;-76
2022/04/11 16:34:18;;;;;;;18.17;9.02;;;;;;;;;;5061803;28;20390;-77
2022/04/11 16:37:04;;;;;;;7.85;4.82;;;;;;;;;;5054985;28;20045;-78
2022/04/11 16:39:49;;;;;;;11.52;4.65;;;;;;;;;;5055145;28;20394;-76
2022/04/11 16:42:35;;;;;;;17.40;7.50;;;;;;;;;;5053519;28;20045;-77